createdAt,value
2019-04-27T00:02:13.478Z,5.23
2019-04-27T00:05:00.179Z,4.87
2019-04-27T00:07:43.837Z,3.80
2019-04-27T00:10:29.300Z,4.10
2019-04-27T00:13:02.190Z,4.90
2019-04-27T00:15:43.951Z,4.37
2019-04-27T00:18:34.239Z,6.17
2019-04-27T00:21:19.966Z,5.00
2019-04-27T00:23:54.981Z,6.80
2019-04-27T00:26:27.205Z,6.40
2019-04-27T00:28:56.000Z,5.53
2019-04-27T00:31:25.255Z,6.40
2019-04-27T00:33:54.209Z,6.03
2019-04-27T00:36:29.633Z,7.73
2019-04-27T00:39:08.398Z,5.67
2019-04-27T00:41:37.278Z,6.10
2019-04-27T00:44:09.194Z,5.97
2019-04-27T00:46:38.086Z,7.50
2019-04-27T00:49:09.961Z,6.70
2019-04-27T00:51:39.113Z,6.57
2019-04-27T00:54:10.902Z,8.10
2019-04-27T00:57:05.179Z,8.80
2019-04-27T01:00:03.228Z,6.87
2019-04-27T01:02:41.132Z,7.63
2019-04-27T01:05:17.859Z,5.63
2019-04-27T01:07:46.681Z,6.63
2019-04-27T01:10:17.137Z,6.33
2019-04-27T01:12:47.321Z,6.67
2019-04-27T01:15:16.281Z,7.67
2019-04-27T01:17:45.261Z,10.57
2019-04-27T01:20:15.698Z,6.33
2019-04-27T01:22:44.570Z,7.00
2019-04-27T01:25:13.525Z,7.47
2019-04-27T01:27:54.046Z,7.00
2019-04-27T01:30:32.911Z,8.87
2019-04-27T01:33:01.814Z,9.33
2019-04-27T01:35:39.654Z,9.43
2019-04-27T01:38:11.701Z,9.33
2019-04-27T01:40:40.595Z,8.03
2019-04-27T01:43:12.578Z,7.93
2019-04-27T01:45:48.815Z,7.73
2019-04-27T01:48:23.730Z,7.73
2019-04-27T01:50:49.233Z,5.17
2019-04-27T01:53:19.031Z,6.40
2019-04-27T01:55:49.124Z,6.27
2019-04-27T01:58:20.193Z,6.50
2019-04-27T02:01:11.126Z,6.93
2019-04-27T02:04:09.233Z,5.93
2019-04-27T02:06:41.214Z,6.17
2019-04-27T02:09:14.600Z,6.43
2019-04-27T02:11:48.955Z,5.83
2019-04-27T02:14:19.628Z,6.10
2019-04-27T02:16:49.332Z,7.27
2019-04-27T02:19:21.198Z,7.07
2019-04-27T02:21:51.537Z,7.90
2019-04-27T02:24:20.955Z,7.10
2019-04-27T02:26:49.934Z,5.53
2019-04-27T02:29:29.115Z,5.90
2019-04-27T02:32:15.688Z,6.20
2019-04-27T02:34:56.969Z,7.03
2019-04-27T02:37:34.684Z,5.90
2019-04-27T02:40:03.973Z,5.80
2019-04-27T02:42:42.644Z,5.10
2019-04-27T02:45:12.233Z,7.17
2019-04-27T02:47:44.154Z,5.43
2019-04-27T02:50:13.332Z,6.10
2019-04-27T02:52:46.162Z,6.67
2019-04-27T02:55:15.054Z,5.97
2019-04-27T02:57:43.851Z,5.27
2019-04-27T03:00:15.107Z,5.73
2019-04-27T03:03:01.926Z,4.73
2019-04-27T03:05:29.847Z,6.03
2019-04-27T03:07:59.780Z,6.03
2019-04-27T03:10:32.050Z,7.03
2019-04-27T03:13:35.237Z,7.93
2019-04-27T03:16:16.402Z,23.83
2019-04-27T03:19:18.037Z,14.87
2019-04-27T03:22:09.754Z,15.27
2019-04-27T03:24:56.452Z,26.13
2019-04-27T03:27:27.313Z,43.53
2019-04-27T03:29:56.266Z,39.80
2019-04-27T03:32:25.230Z,40.63
2019-04-27T03:35:02.127Z,56.53
2019-04-27T03:37:30.326Z,44.30
2019-04-27T03:40:10.332Z,34.57
2019-04-27T03:42:40.475Z,22.63
2019-04-27T03:45:11.334Z,18.70
2019-04-27T03:47:41.012Z,26.63
2019-04-27T03:50:12.150Z,11.17
2019-04-27T03:53:11.719Z,12.20
2019-04-27T03:55:50.242Z,12.17
2019-04-27T03:58:30.516Z,9.03
2019-04-27T04:01:00.136Z,8.70
2019-04-27T04:03:31.903Z,8.53
2019-04-27T04:06:01.074Z,9.53
2019-04-27T04:08:33.059Z,8.37
2019-04-27T04:11:13.603Z,9.30
2019-04-27T04:13:50.712Z,9.90
2019-04-27T04:16:49.572Z,8.43
2019-04-27T04:19:53.998Z,8.03
2019-04-27T04:21:52.161Z,8.00
2019-04-27T04:24:28.540Z,8.37
2019-04-27T04:26:55.111Z,7.10
2019-04-27T04:29:23.978Z,7.37
2019-04-27T04:31:55.990Z,6.67
2019-04-27T04:34:29.938Z,6.80
2019-04-27T04:37:09.287Z,7.17
2019-04-27T04:39:40.259Z,10.70
2019-04-27T04:42:20.049Z,7.63
2019-04-27T04:45:15.113Z,9.27
2019-04-27T04:48:06.697Z,9.10
2019-04-27T04:50:36.147Z,11.63
2019-04-27T04:53:05.342Z,10.93
2019-04-27T04:55:34.657Z,8.20
2019-04-27T04:58:03.762Z,9.17
2019-04-27T05:00:35.594Z,8.07
2019-04-27T05:03:04.709Z,9.77
2019-04-27T05:05:36.348Z,11.90
2019-04-27T05:08:05.307Z,14.80
2019-04-27T05:10:34.256Z,14.40
2019-04-27T05:13:06.179Z,23.13
2019-04-27T05:15:39.501Z,20.70
2019-04-27T05:18:11.333Z,24.33
2019-04-27T05:20:58.677Z,13.20
2019-04-27T05:23:30.569Z,12.47
2019-04-27T05:26:00.213Z,26.57
2019-04-27T05:28:29.889Z,27.77
2019-04-27T05:31:00.642Z,28.43
2019-04-27T05:33:29.549Z,22.20
2019-04-27T05:35:59.114Z,21.87
2019-04-27T05:38:29.494Z,20.87
2019-04-27T05:41:01.281Z,17.53
2019-04-27T05:43:36.837Z,17.77
2019-04-27T05:46:46.082Z,18.03
2019-04-27T05:49:22.533Z,14.47
2019-04-27T05:51:51.477Z,13.00
2019-04-27T05:54:20.678Z,14.37
2019-04-27T05:56:49.841Z,12.47
2019-04-27T05:59:19.815Z,12.67
2019-04-27T06:01:54.230Z,11.90
2019-04-27T06:04:29.162Z,11.10
2019-04-27T06:06:58.787Z,11.97
2019-04-27T06:09:29.055Z,12.70
2019-04-27T06:11:59.050Z,11.80
2019-04-27T06:14:30.765Z,12.43
2019-04-27T06:16:59.787Z,11.83
2019-04-27T06:19:29.206Z,10.63
2019-04-27T06:22:01.414Z,10.10
2019-04-27T06:24:31.606Z,9.20
2019-04-27T06:27:00.848Z,10.17
2019-04-27T06:29:33.078Z,9.30
2019-04-27T06:32:01.924Z,8.97
2019-04-27T06:34:38.926Z,7.20
2019-04-27T06:37:07.465Z,6.47
2019-04-27T06:39:43.554Z,6.50
2019-04-27T06:42:18.511Z,4.97
2019-04-27T06:44:43.375Z,5.95
2019-04-27T06:47:12.169Z,6.33
2019-04-27T06:49:44.265Z,6.40
2019-04-27T06:52:15.099Z,4.40
2019-04-27T06:54:49.773Z,7.40
2019-04-27T06:57:19.270Z,6.93
2019-04-27T06:59:51.284Z,5.43
2019-04-27T07:02:20.356Z,4.03
2019-04-27T07:04:49.272Z,4.47
2019-04-27T07:07:19.506Z,4.40
2019-04-27T07:09:49.319Z,4.87
2019-04-27T07:12:19.081Z,4.17
2019-04-27T07:14:54.894Z,4.20
2019-04-27T07:17:24.121Z,4.90
2019-04-27T07:19:59.854Z,5.67
2019-04-27T07:22:39.700Z,4.77
2019-04-27T07:24:59.393Z,6.80
2019-04-27T07:27:34.120Z,5.40
2019-04-27T07:30:11.470Z,6.10
2019-04-27T07:32:36.889Z,5.53
2019-04-27T07:35:09.838Z,6.00
2019-04-27T07:37:41.681Z,4.60
2019-04-27T07:40:10.853Z,5.73
2019-04-27T07:42:41.941Z,8.47
2019-04-27T07:45:22.689Z,4.80
2019-04-27T07:47:54.904Z,8.23
2019-04-27T07:50:26.553Z,7.20
2019-04-27T07:52:55.602Z,9.30
2019-04-27T07:55:24.650Z,8.40
2019-04-27T07:57:53.548Z,9.03
2019-04-27T08:00:25.452Z,7.73
2019-04-27T08:02:54.514Z,8.00
2019-04-27T08:05:23.338Z,11.27
2019-04-27T08:07:52.178Z,9.03
2019-04-27T08:10:24.290Z,11.03
2019-04-27T08:13:01.985Z,8.83
2019-04-27T08:15:30.812Z,11.13
2019-04-27T08:18:02.741Z,9.70
2019-04-27T08:20:34.740Z,8.07
2019-04-27T08:23:03.628Z,8.23
2019-04-27T08:25:32.610Z,8.63
2019-04-27T08:28:08.550Z,8.47
2019-04-27T08:30:53.692Z,7.43
2019-04-27T08:33:22.821Z,7.47
2019-04-27T08:35:51.712Z,6.77
2019-04-27T08:38:20.705Z,7.03
2019-04-27T08:40:52.656Z,6.67
2019-04-27T08:43:21.701Z,7.17
2019-04-27T08:45:58.730Z,6.77
2019-04-27T08:48:36.580Z,7.63
2019-04-27T08:51:05.073Z,7.57
2019-04-27T08:53:36.888Z,7.70
2019-04-27T08:56:05.808Z,8.17
2019-04-27T08:58:34.966Z,7.67
2019-04-27T09:01:09.723Z,7.53
2019-04-27T09:03:40.236Z,6.53
2019-04-27T09:06:11.398Z,6.93
2019-04-27T09:08:55.494Z,6.90
2019-04-27T09:11:49.460Z,7.67
2019-04-27T09:14:46.496Z,6.73
2019-04-27T09:17:32.733Z,8.27
2019-04-27T09:20:21.404Z,6.07
2019-04-27T09:22:50.289Z,20.17
2019-04-27T09:25:19.353Z,5.70
2019-04-27T09:27:51.117Z,7.87
2019-04-27T09:30:26.533Z,6.27
2019-04-27T09:32:55.528Z,6.40
2019-04-27T09:35:30.332Z,5.97
2019-04-27T09:38:02.231Z,10.87
2019-04-27T09:40:31.281Z,13.50
2019-04-27T09:43:07.509Z,5.67
2019-04-27T09:45:39.422Z,6.80
2019-04-27T09:48:11.340Z,6.97
2019-04-27T09:50:40.398Z,4.70
2019-04-27T09:53:09.338Z,5.90
2019-04-27T09:55:38.340Z,8.13
2019-04-27T09:58:07.668Z,3.70
2019-04-27T10:00:37.067Z,4.97
2019-04-27T10:03:06.727Z,7.53
2019-04-27T10:05:36.724Z,7.10
2019-04-27T10:08:06.251Z,5.53
2019-04-27T10:10:36.968Z,5.73
2019-04-27T10:13:06.982Z,7.03
2019-04-27T10:15:36.333Z,5.60
2019-04-27T10:18:06.082Z,4.50
2019-04-27T10:20:39.797Z,5.90
2019-04-27T10:23:06.516Z,5.20
2019-04-27T10:25:37.443Z,4.80
2019-04-27T10:28:09.171Z,4.60
2019-04-27T10:30:38.057Z,3.97
2019-04-27T10:33:08.240Z,9.57
2019-04-27T10:35:37.259Z,5.90
2019-04-27T10:38:06.508Z,5.47
2019-04-27T10:40:35.358Z,8.33
2019-04-27T10:43:07.396Z,7.37
2019-04-27T10:45:37.933Z,5.77
2019-04-27T10:48:07.005Z,8.83
2019-04-27T10:50:47.905Z,8.47
2019-04-27T10:53:19.732Z,9.10
2019-04-27T10:55:57.477Z,6.67
2019-04-27T10:58:27.278Z,7.37
2019-04-27T11:01:01.254Z,7.73
2019-04-27T11:03:48.189Z,9.07
2019-04-27T11:06:33.631Z,10.57
2019-04-27T11:09:10.450Z,8.03
2019-04-27T11:11:39.788Z,9.23
2019-04-27T11:14:26.834Z,9.90
2019-04-27T11:17:01.994Z,9.23
2019-04-27T11:19:35.747Z,8.07
2019-04-27T11:22:07.067Z,6.97
2019-04-27T11:24:38.485Z,7.37
2019-04-27T11:27:09.558Z,7.03
2019-04-27T11:29:38.731Z,7.23
2019-04-27T11:32:07.962Z,7.73
2019-04-27T11:34:55.844Z,6.27
2019-04-27T11:37:31.402Z,8.90
2019-04-27T11:40:00.985Z,5.77
2019-04-27T11:42:29.977Z,6.47
2019-04-27T11:44:59.032Z,6.37
2019-04-27T11:47:31.112Z,8.17
2019-04-27T11:50:00.209Z,8.17
2019-04-27T11:52:32.221Z,7.00
2019-04-27T11:55:17.210Z,13.23
2019-04-27T11:57:55.865Z,8.40
2019-04-27T12:00:27.688Z,8.27
2019-04-27T12:02:58.605Z,3.30
2019-04-27T12:05:27.585Z,3.73
2019-04-27T12:07:56.462Z,2.97
2019-04-27T12:10:26.281Z,4.37
2019-04-27T12:12:56.267Z,3.90
2019-04-27T12:15:26.317Z,4.13
2019-04-27T12:17:56.175Z,4.53
2019-04-27T12:20:25.811Z,2.70
2019-04-27T12:22:55.186Z,3.20
2019-04-27T12:25:25.226Z,1.70
2019-04-27T12:28:05.083Z,1.13
2019-04-27T12:30:44.522Z,1.87
2019-04-27T12:33:16.234Z,0.97
2019-04-27T12:35:46.238Z,2.53
2019-04-27T12:38:18.877Z,2.03
2019-04-27T12:40:48.109Z,0.90
2019-04-27T12:43:17.137Z,1.33
2019-04-27T12:45:52.478Z,0.50
2019-04-27T12:48:21.405Z,0.53
2019-04-27T12:50:50.821Z,1.53
2019-04-27T12:53:26.990Z,0.77
2019-04-27T12:56:21.116Z,0.80
2019-04-27T12:58:57.206Z,1.87
2019-04-27T13:01:29.447Z,1.70
2019-04-27T13:03:59.243Z,1.10
2019-04-27T13:06:28.535Z,3.20
2019-04-27T13:09:00.650Z,1.30
2019-04-27T13:11:29.497Z,3.67
2019-04-27T13:13:58.509Z,2.90
2019-04-27T13:16:30.271Z,2.33
2019-04-27T13:18:58.578Z,1.33
2019-04-27T13:21:30.187Z,2.63
2019-04-27T13:24:04.502Z,3.27
2019-04-27T13:26:38.195Z,4.93
2019-04-27T13:29:07.167Z,1.97
2019-04-27T13:31:39.856Z,1.63
2019-04-27T13:34:09.210Z,1.50
2019-04-27T13:36:38.480Z,4.00
2019-04-27T13:39:10.930Z,15.10
2019-04-27T13:41:41.969Z,2.20
2019-04-27T13:44:10.783Z,5.57
2019-04-27T13:46:57.458Z,4.93
2019-04-27T13:49:46.009Z,2.20
2019-04-27T13:52:23.872Z,3.47
2019-04-27T13:54:55.896Z,1.80
2019-04-27T13:57:26.438Z,3.13
2019-04-27T13:59:55.433Z,3.97
2019-04-27T14:02:28.837Z,5.47
2019-04-27T14:04:58.558Z,6.30
2019-04-27T14:07:33.761Z,2.50
2019-04-27T14:10:09.370Z,3.73
2019-04-27T14:12:41.377Z,2.77
2019-04-27T14:15:16.184Z,3.47
2019-04-27T14:17:45.208Z,3.50
2019-04-27T14:20:14.473Z,2.50
2019-04-27T14:22:46.432Z,7.00
2019-04-27T14:25:15.584Z,3.97
2019-04-27T14:27:44.460Z,3.70
2019-04-27T14:30:17.656Z,3.20
2019-04-27T14:32:46.718Z,2.30
2019-04-27T14:35:15.754Z,3.07
2019-04-27T14:37:47.521Z,6.40
2019-04-27T14:40:20.446Z,7.17
2019-04-27T14:42:53.727Z,7.17
2019-04-27T14:45:26.032Z,4.97
2019-04-27T14:47:58.248Z,3.37
2019-04-27T14:50:27.436Z,3.70
2019-04-27T14:52:56.428Z,3.50
2019-04-27T14:55:28.241Z,3.20
2019-04-27T14:58:05.004Z,6.00
2019-04-27T15:00:34.211Z,3.83
2019-04-27T15:03:03.131Z,3.50
2019-04-27T15:05:32.144Z,3.50
2019-04-27T15:08:01.710Z,3.43
2019-04-27T15:10:36.041Z,4.30
2019-04-27T15:13:10.014Z,2.53
2019-04-27T15:15:47.736Z,4.00
2019-04-27T15:18:16.791Z,2.20
2019-04-27T15:20:46.724Z,2.80
2019-04-27T15:23:16.305Z,3.80
2019-04-27T15:25:46.930Z,3.30
2019-04-27T15:28:22.846Z,5.60
2019-04-27T15:31:23.696Z,4.00
2019-04-27T15:34:05.077Z,3.43
2019-04-27T15:36:44.937Z,5.20
2019-04-27T15:39:22.541Z,5.87
2019-04-27T15:41:54.802Z,6.90
2019-04-27T15:44:41.124Z,5.97
2019-04-27T15:47:07.846Z,4.57
2019-04-27T15:49:34.224Z,7.33
2019-04-27T15:52:04.623Z,4.37
2019-04-27T15:54:33.718Z,5.77
2019-04-27T15:57:05.793Z,5.67
2019-04-27T15:59:41.143Z,3.70
2019-04-27T16:02:15.232Z,5.23
2019-04-27T16:04:44.296Z,3.87
2019-04-27T16:07:11.943Z,4.00
2019-04-27T16:09:40.727Z,4.40
2019-04-27T16:12:12.755Z,3.80
2019-04-27T16:14:43.928Z,4.43
2019-04-27T16:17:13.958Z,3.27
2019-04-27T16:19:47.338Z,6.80
2019-04-27T16:22:22.564Z,5.87
2019-04-27T16:24:54.716Z,5.37
2019-04-27T16:27:25.798Z,6.30
2019-04-27T16:29:54.522Z,3.93
2019-04-27T16:32:29.725Z,8.27
2019-04-27T16:34:59.349Z,1.77
2019-04-27T16:37:51.979Z,3.03
2019-04-27T16:40:26.970Z,3.57
2019-04-27T16:42:55.868Z,4.67
2019-04-27T16:45:27.165Z,3.17
2019-04-27T16:47:59.856Z,2.70
2019-04-27T16:50:28.941Z,4.17
2019-04-27T16:53:00.897Z,3.13
2019-04-27T16:55:34.152Z,2.80
2019-04-27T16:57:59.953Z,2.90
2019-04-27T17:00:31.801Z,3.90
2019-04-27T17:03:02.852Z,3.83
2019-04-27T17:05:34.858Z,8.47
2019-04-27T17:08:04.532Z,8.80
2019-04-27T17:10:34.124Z,5.40
2019-04-27T17:13:06.104Z,1.80
2019-04-27T17:15:55.098Z,2.27
2019-04-27T17:18:31.601Z,4.40
2019-04-27T17:21:15.853Z,5.43
2019-04-27T17:23:33.040Z,2.93
2019-04-27T17:26:09.519Z,7.83
2019-04-27T17:28:43.675Z,3.37
2019-04-27T17:31:18.880Z,5.80
2019-04-27T17:33:51.264Z,2.37
2019-04-27T17:36:20.684Z,2.97
2019-04-27T17:38:51.064Z,2.73
2019-04-27T17:41:20.169Z,2.60
2019-04-27T17:43:50.316Z,3.83
2019-04-27T17:46:19.944Z,4.77
2019-04-27T17:48:52.793Z,2.33
2019-04-27T17:51:28.549Z,2.80
2019-04-27T17:53:58.730Z,3.43
2019-04-27T17:56:33.982Z,3.03
2019-04-27T17:58:58.705Z,4.03
2019-04-27T18:01:30.163Z,4.93
2019-04-27T18:04:03.024Z,3.50
2019-04-27T18:06:31.221Z,5.33
2019-04-27T18:09:04.401Z,3.63
2019-04-27T18:11:37.191Z,5.17
2019-04-27T18:14:04.316Z,3.87
2019-04-27T18:16:34.431Z,3.27
2019-04-27T18:19:11.842Z,3.50
2019-04-27T18:21:57.458Z,3.83
2019-04-27T18:24:33.116Z,4.63
2019-04-27T18:27:13.257Z,4.30
2019-04-27T18:29:42.062Z,4.40
2019-04-27T18:32:13.789Z,4.57
2019-04-27T18:34:49.326Z,6.17
2019-04-27T18:37:24.494Z,6.40
2019-04-27T18:39:54.819Z,8.77
2019-04-27T18:42:23.228Z,8.57
2019-04-27T18:44:52.469Z,8.20
2019-04-27T18:47:21.365Z,5.07
2019-04-27T18:50:17.757Z,5.17
2019-04-27T18:52:53.209Z,3.33
2019-04-27T18:55:22.369Z,2.53
2019-04-27T18:57:54.374Z,4.67
2019-04-27T19:00:24.954Z,4.70
2019-04-27T19:02:58.446Z,3.57
2019-04-27T19:05:38.010Z,2.53
2019-04-27T19:08:02.555Z,3.13
2019-04-27T19:10:31.373Z,4.27
2019-04-27T19:13:00.567Z,10.50
2019-04-27T19:15:29.521Z,4.50
2019-04-27T19:17:58.365Z,5.10
2019-04-27T19:20:28.757Z,3.90
2019-04-27T19:22:59.832Z,3.87
2019-04-27T19:25:42.127Z,3.77
2019-04-27T19:28:38.856Z,2.10
2019-04-27T19:31:08.904Z,2.37
2019-04-27T19:33:40.810Z,3.60
2019-04-27T19:36:13.908Z,2.20
2019-04-27T19:38:43.310Z,3.37
2019-04-27T19:41:12.386Z,3.37
2019-04-27T19:43:41.549Z,5.77
2019-04-27T19:46:10.518Z,2.97
2019-04-27T19:48:42.244Z,4.57
2019-04-27T19:51:14.569Z,4.43
2019-04-27T19:53:43.369Z,2.87
2019-04-27T19:56:12.819Z,2.93
2019-04-27T19:58:46.169Z,4.10
2019-04-27T20:01:19.189Z,4.53
2019-04-27T20:04:10.085Z,3.13
2019-04-27T20:06:42.142Z,4.07
2019-04-27T20:09:36.437Z,2.37
2019-04-27T20:12:08.223Z,2.97
2019-04-27T20:14:57.551Z,5.53
2019-04-27T20:17:27.914Z,3.57
2019-04-27T20:19:57.374Z,3.70
2019-04-27T20:22:26.298Z,3.30
2019-04-27T20:24:55.285Z,6.80
2019-04-27T20:27:25.575Z,4.60
2019-04-27T20:29:54.631Z,5.47
2019-04-27T20:32:23.602Z,3.50
2019-04-27T20:34:55.491Z,5.53
2019-04-27T20:37:24.334Z,2.83
2019-04-27T20:39:56.484Z,6.17
2019-04-27T20:42:28.469Z,4.43
2019-04-27T20:44:57.497Z,5.87
2019-04-27T20:47:29.486Z,5.47
2019-04-27T20:49:58.665Z,4.17
2019-04-27T20:52:59.037Z,3.10
2019-04-27T20:55:28.374Z,5.00
2019-04-27T20:58:02.691Z,4.97
2019-04-27T21:00:34.189Z,5.23
2019-04-27T21:03:07.585Z,4.77
2019-04-27T21:05:58.496Z,4.47
2019-04-27T21:08:27.785Z,5.80
2019-04-27T21:10:56.708Z,5.30
2019-04-27T21:13:29.980Z,7.80
2019-04-27T21:15:59.217Z,5.53
2019-04-27T21:18:28.076Z,4.70
2019-04-27T21:20:57.282Z,5.73
2019-04-27T21:23:26.353Z,5.97
2019-04-27T21:25:55.340Z,4.33
2019-04-27T21:28:24.422Z,3.67
2019-04-27T21:30:53.405Z,4.60
2019-04-27T21:33:25.305Z,5.10
2019-04-27T21:35:54.812Z,5.20
2019-04-27T21:38:23.861Z,4.87
2019-04-27T21:40:53.509Z,5.40
2019-04-27T21:43:24.605Z,5.93
2019-04-27T21:45:56.291Z,8.47
2019-04-27T21:48:25.445Z,4.87
2019-04-27T21:50:54.332Z,9.83
2019-04-27T21:53:35.551Z,6.77
2019-04-27T21:56:06.476Z,6.50
2019-04-27T21:58:38.920Z,6.43
2019-04-27T22:01:31.945Z,5.13
2019-04-27T22:04:01.032Z,8.43
2019-04-27T22:06:32.881Z,5.33
2019-04-27T22:09:02.089Z,7.60
2019-04-27T22:11:33.955Z,5.93
2019-04-27T22:14:06.095Z,5.63
2019-04-27T22:16:41.663Z,5.33
2019-04-27T22:19:12.027Z,5.00
2019-04-27T22:21:43.421Z,7.77
2019-04-27T22:24:29.681Z,9.83
2019-04-27T22:27:02.139Z,7.07
2019-04-27T22:29:32.101Z,5.13
2019-04-27T22:32:01.636Z,7.70
2019-04-27T22:34:34.738Z,7.40
2019-04-27T22:37:04.207Z,6.07
2019-04-27T22:39:42.296Z,5.93
2019-04-27T22:42:31.323Z,9.40
2019-04-27T22:45:07.257Z,5.63
2019-04-27T22:47:37.070Z,7.50
2019-04-27T22:50:06.375Z,7.37
2019-04-27T22:52:36.022Z,8.43
2019-04-27T22:55:05.089Z,8.43
2019-04-27T22:57:45.867Z,6.83
2019-04-27T23:00:32.337Z,3.90
2019-04-27T23:03:13.775Z,6.40
2019-04-27T23:05:46.674Z,8.00
2019-04-27T23:08:20.745Z,7.70
2019-04-27T23:10:52.757Z,6.43
2019-04-27T23:13:24.985Z,5.67
2019-04-27T23:15:55.917Z,6.80
2019-04-27T23:18:27.826Z,8.07
2019-04-27T23:21:05.683Z,7.17
2019-04-27T23:23:34.657Z,9.73
2019-04-27T23:26:12.777Z,4.53
2019-04-27T23:28:41.662Z,10.07
2019-04-27T23:31:22.861Z,14.70
2019-04-27T23:33:54.472Z,5.23
2019-04-27T23:36:23.324Z,6.97
2019-04-27T23:38:52.483Z,7.47
2019-04-27T23:41:21.305Z,8.13
2019-04-27T23:43:50.242Z,6.10
2019-04-27T23:46:21.849Z,7.97
2019-04-27T23:48:53.937Z,7.77
2019-04-27T23:51:34.218Z,5.77
2019-04-27T23:54:04.592Z,9.40
2019-04-27T23:56:33.466Z,8.47
2019-04-27T23:59:02.409Z,7.43
